createdAt,value
2018-12-31T00:00:50.810Z,8.80
2018-12-31T00:03:31.904Z,8.80
2018-12-31T00:06:12.661Z,8.80
2018-12-31T00:08:53.493Z,8.80
2018-12-31T00:11:34.200Z,8.80
2018-12-31T00:14:14.767Z,8.80
2018-12-31T00:16:55.212Z,8.90
2018-12-31T00:19:36.134Z,8.90
2018-12-31T00:22:16.868Z,8.90
2018-12-31T00:24:57.668Z,8.90
2018-12-31T00:27:38.190Z,8.90
2018-12-31T00:30:18.903Z,9.00
2018-12-31T00:32:59.818Z,9.00
2018-12-31T00:35:40.412Z,9.00
2018-12-31T00:38:21.420Z,9.00
2018-12-31T00:41:02.556Z,9.00
2018-12-31T00:43:42.769Z,9.10
2018-12-31T00:46:23.324Z,9.00
2018-12-31T00:49:03.816Z,9.10
2018-12-31T00:51:44.329Z,9.10
2018-12-31T00:54:25.240Z,9.10
2018-12-31T00:57:05.796Z,9.10
2018-12-31T00:59:46.358Z,9.10
2018-12-31T01:02:27.238Z,9.00
2018-12-31T01:05:08.503Z,9.10
2018-12-31T01:07:49.085Z,9.00
2018-12-31T01:10:29.449Z,9.00
2018-12-31T01:13:10.152Z,9.00
2018-12-31T01:15:51.219Z,9.10
2018-12-31T01:18:32.447Z,9.00
2018-12-31T01:21:12.944Z,9.10
2018-12-31T01:23:53.438Z,9.10
2018-12-31T01:26:34.432Z,9.10
2018-12-31T01:29:14.905Z,9.10
2018-12-31T01:31:55.615Z,9.10
2018-12-31T01:34:36.346Z,9.10
2018-12-31T01:37:17.367Z,9.20
2018-12-31T01:39:58.277Z,9.10
2018-12-31T01:42:39.093Z,9.20
2018-12-31T01:45:19.981Z,9.20
2018-12-31T01:48:00.673Z,9.20
2018-12-31T01:50:41.644Z,9.10
2018-12-31T01:53:22.489Z,9.10
2018-12-31T01:56:03.156Z,9.10
2018-12-31T01:58:44.276Z,9.10
2018-12-31T02:01:24.706Z,9.10
2018-12-31T02:04:06.120Z,9.10
2018-12-31T02:06:46.681Z,9.10
2018-12-31T02:09:27.679Z,9.10
2018-12-31T02:12:08.265Z,9.20
2018-12-31T02:14:48.965Z,9.20
2018-12-31T02:17:29.575Z,9.20
2018-12-31T02:20:10.382Z,9.20
2018-12-31T02:22:51.465Z,9.20
2018-12-31T02:25:32.099Z,9.20
2018-12-31T02:31:18.298Z,9.30
2018-12-31T02:33:58.913Z,9.30
2018-12-31T02:36:39.640Z,9.30
2018-12-31T02:42:39.843Z,9.30
2018-12-31T02:45:20.737Z,9.20
2018-12-31T02:48:01.329Z,9.20
2018-12-31T02:53:47.894Z,9.20
2018-12-31T02:56:28.619Z,9.30
2018-12-31T02:59:09.337Z,9.40
2018-12-31T03:01:50.205Z,9.40
2018-12-31T03:04:30.910Z,9.50
2018-12-31T03:07:11.903Z,9.50
2018-12-31T03:09:52.931Z,9.40
2018-12-31T03:12:33.485Z,9.50
2018-12-31T03:15:14.582Z,9.60
2018-12-31T03:17:55.452Z,9.60
2018-12-31T03:20:36.097Z,9.70
2018-12-31T03:23:17.127Z,9.70
2018-12-31T03:25:57.687Z,9.70
2018-12-31T03:28:38.596Z,9.70
2018-12-31T03:31:19.146Z,9.60
2018-12-31T03:33:59.994Z,9.50
2018-12-31T03:36:41.176Z,9.50
2018-12-31T03:39:21.897Z,9.50
2018-12-31T03:42:03.030Z,9.60
2018-12-31T03:44:43.506Z,9.70
2018-12-31T03:47:24.123Z,9.80
2018-12-31T03:53:17.164Z,9.80
2018-12-31T03:55:57.816Z,9.70
2018-12-31T03:58:38.112Z,9.80
2018-12-31T04:01:18.956Z,9.80
2018-12-31T04:04:00.156Z,9.90
2018-12-31T04:06:40.984Z,10.00
2018-12-31T04:09:22.120Z,9.90
2018-12-31T04:12:03.089Z,10.00
2018-12-31T04:14:44.186Z,10.00
2018-12-31T04:17:24.698Z,10.10
2018-12-31T04:20:05.728Z,10.00
2018-12-31T04:22:46.371Z,10.00
2018-12-31T04:25:27.052Z,10.10
2018-12-31T04:28:07.816Z,10.20
2018-12-31T04:30:48.799Z,10.10
2018-12-31T04:33:30.185Z,10.00
2018-12-31T04:36:10.896Z,9.80
2018-12-31T04:38:51.526Z,9.80
2018-12-31T04:41:32.585Z,9.80
2018-12-31T04:44:13.364Z,9.90
2018-12-31T04:46:54.137Z,9.90
2018-12-31T04:49:34.589Z,9.90
2018-12-31T04:52:15.579Z,9.90
2018-12-31T04:54:56.849Z,10.00
2018-12-31T04:57:37.761Z,10.10
2018-12-31T05:00:18.361Z,10.10
2018-12-31T05:02:59.529Z,10.10
2018-12-31T05:05:40.303Z,10.10
2018-12-31T05:08:21.308Z,10.20
2018-12-31T05:11:01.729Z,10.20
2018-12-31T05:13:42.490Z,10.20
2018-12-31T05:16:23.111Z,10.20
2018-12-31T05:19:03.621Z,10.20
2018-12-31T05:21:44.689Z,10.20
2018-12-31T05:24:25.294Z,10.10
2018-12-31T05:27:06.101Z,10.20
2018-12-31T05:29:46.853Z,10.20
2018-12-31T05:32:27.830Z,10.20
2018-12-31T05:35:08.891Z,10.20
2018-12-31T05:37:49.475Z,10.20
2018-12-31T05:40:30.487Z,10.20
2018-12-31T05:43:11.433Z,10.30
2018-12-31T05:45:52.578Z,10.30
2018-12-31T05:48:33.129Z,10.30
2018-12-31T05:51:14.342Z,10.40
2018-12-31T05:53:55.126Z,10.40
2018-12-31T05:56:35.678Z,10.40
2018-12-31T06:05:11.551Z,10.50
2018-12-31T06:08:24.188Z,10.40
2018-12-31T06:16:42.656Z,10.30
2018-12-31T06:21:59.073Z,10.30
2018-12-31T06:27:49.859Z,10.30
2018-12-31T06:30:20.530Z,10.30
2018-12-31T06:35:57.121Z,10.30
2018-12-31T06:41:22.601Z,10.30
2018-12-31T06:44:27.362Z,10.30
2018-12-31T06:47:00.580Z,10.30
2018-12-31T06:50:08.277Z,10.20
2018-12-31T06:52:35.634Z,10.30
2018-12-31T06:58:28.735Z,10.20
2018-12-31T07:03:44.309Z,10.30
2018-12-31T07:06:28.663Z,10.40
2018-12-31T07:09:34.929Z,10.40
2018-12-31T07:14:52.942Z,10.50
2018-12-31T07:20:56.100Z,10.40
2018-12-31T07:25:59.355Z,10.30
2018-12-31T07:31:49.873Z,10.30
2018-12-31T07:37:04.504Z,10.40
2018-12-31T07:42:55.535Z,10.30
2018-12-31T07:48:47.590Z,10.20
2018-12-31T07:51:57.897Z,10.30
2018-12-31T07:57:13.858Z,10.30
2018-12-31T08:03:04.229Z,10.30
2018-12-31T08:05:32.345Z,10.30
2018-12-31T08:13:56.465Z,10.40
2018-12-31T08:17:01.808Z,10.50
2018-12-31T08:22:40.552Z,10.50
2018-12-31T08:25:11.059Z,10.60
2018-12-31T08:27:57.496Z,10.40
2018-12-31T08:30:43.695Z,10.50
2018-12-31T08:37:04.836Z,10.40
2018-12-31T08:39:59.248Z,10.50
2018-12-31T08:45:19.767Z,10.60
2018-12-31T08:48:05.734Z,10.60
2018-12-31T08:53:30.375Z,10.70
2018-12-31T08:59:02.182Z,10.70
2018-12-31T09:04:33.435Z,10.90
2018-12-31T09:10:17.563Z,11.00
2018-12-31T09:12:58.802Z,11.10
2018-12-31T09:15:45.892Z,11.10
2018-12-31T09:18:33.875Z,11.00
2018-12-31T09:24:06.320Z,11.00
2018-12-31T09:29:38.350Z,11.10
2018-12-31T09:35:08.466Z,11.30
2018-12-31T09:37:49.830Z,11.30
2018-12-31T09:40:34.739Z,11.10
2018-12-31T09:43:20.092Z,11.20
2018-12-31T09:46:04.163Z,11.10
2018-12-31T09:48:50.988Z,11.20
2018-12-31T09:51:37.970Z,11.30
2018-12-31T09:57:37.109Z,11.30
2018-12-31T10:00:31.018Z,11.30
2018-12-31T10:05:49.329Z,11.20
2018-12-31T10:08:30.522Z,11.30
2018-12-31T10:11:16.725Z,11.20
2018-12-31T10:14:01.312Z,11.30
2018-12-31T10:19:27.772Z,11.70
2018-12-31T10:24:57.950Z,11.80
2018-12-31T10:27:44.249Z,11.70
2018-12-31T10:30:48.395Z,11.60
2018-12-31T10:36:08.100Z,11.40
2018-12-31T10:44:24.905Z,11.50
2018-12-31T10:47:06.127Z,11.60
2018-12-31T10:49:50.487Z,11.70
2018-12-31T10:55:41.786Z,11.80
2018-12-31T11:00:56.793Z,11.80
2018-12-31T11:03:42.040Z,11.90
2018-12-31T11:09:05.594Z,11.70
2018-12-31T11:12:10.078Z,11.60
2018-12-31T11:14:36.535Z,11.60
2018-12-31T11:20:07.137Z,11.50
2018-12-31T11:25:39.251Z,11.50
2018-12-31T11:31:30.665Z,11.40
2018-12-31T11:34:00.420Z,11.40
2018-12-31T11:37:06.264Z,11.50
2018-12-31T11:42:43.915Z,11.60
2018-12-31T11:48:22.104Z,12.00
2018-12-31T11:50:53.554Z,12.00
2018-12-31T11:53:35.071Z,12.00
2018-12-31T11:59:10.778Z,11.90
2018-12-31T12:04:42.283Z,12.00
2018-12-31T12:10:13.857Z,12.00
2018-12-31T12:16:05.991Z,12.00
2018-12-31T12:18:29.012Z,12.00
2018-12-31T12:21:16.186Z,11.90
2018-12-31T12:29:33.660Z,12.00
2018-12-31T12:35:02.460Z,12.00
2018-12-31T12:37:48.841Z,12.00
2018-12-31T12:40:29.779Z,11.90
2018-12-31T12:43:10.207Z,11.90
2018-12-31T12:48:33.579Z,12.00
2018-12-31T12:51:15.028Z,11.90
2018-12-31T12:53:58.958Z,11.80
2018-12-31T12:59:57.103Z,11.80
2018-12-31T13:07:49.484Z,11.90
2018-12-31T13:10:35.793Z,11.90
2018-12-31T13:16:11.241Z,11.90
2018-12-31T13:21:42.916Z,12.00
2018-12-31T13:24:24.195Z,12.10
2018-12-31T13:27:31.270Z,12.10
2018-12-31T13:29:58.321Z,12.10
2018-12-31T13:33:07.024Z,12.10
2018-12-31T13:38:16.635Z,12.10
2018-12-31T13:43:47.175Z,12.20
2018-12-31T13:52:13.646Z,12.10
2018-12-31T13:55:15.237Z,12.10
2018-12-31T14:00:33.490Z,12.00
2018-12-31T14:03:17.626Z,12.10
2018-12-31T14:05:56.574Z,12.10
2018-12-31T14:08:40.718Z,12.10
2018-12-31T14:11:21.212Z,12.20
2018-12-31T14:16:47.459Z,12.20
2018-12-31T14:22:17.395Z,12.30
2018-12-31T14:24:57.930Z,12.20
2018-12-31T14:27:38.732Z,12.30
2018-12-31T14:30:19.663Z,12.20
2018-12-31T14:33:00.572Z,12.20
2018-12-31T14:35:45.701Z,12.20
2018-12-31T14:38:23.257Z,12.10
2018-12-31T14:41:03.811Z,12.20
2018-12-31T14:43:44.758Z,12.10
2018-12-31T14:46:25.537Z,12.10
2018-12-31T14:48:54.279Z,12.10
2018-12-31T14:51:43.794Z,12.00
2018-12-31T14:54:31.566Z,12.00
2018-12-31T14:57:19.388Z,11.90
2018-12-31T15:00:27.902Z,11.80
2018-12-31T15:03:15.901Z,11.70
2018-12-31T15:06:03.658Z,11.70
2018-12-31T15:08:51.697Z,11.70
2018-12-31T15:11:39.712Z,11.60
2018-12-31T15:14:27.790Z,11.50
2018-12-31T15:17:15.558Z,11.50
2018-12-31T15:20:03.723Z,11.40
2018-12-31T15:22:51.779Z,11.50
2018-12-31T15:25:39.563Z,11.50
2018-12-31T15:28:27.704Z,11.50
2018-12-31T15:31:17.516Z,11.50
2018-12-31T15:34:05.294Z,11.40
2018-12-31T15:40:43.653Z,11.50
2018-12-31T15:43:52.490Z,11.50
2018-12-31T15:46:33.165Z,11.40
2018-12-31T15:51:56.134Z,11.50
2018-12-31T15:57:22.383Z,11.50
2018-12-31T16:00:03.012Z,11.50
2018-12-31T16:02:43.589Z,11.50
2018-12-31T16:05:24.547Z,11.50
2018-12-31T16:08:09.456Z,11.50
2018-12-31T16:10:50.898Z,11.50
2018-12-31T16:13:52.024Z,11.50
2018-12-31T16:16:22.425Z,11.40
2018-12-31T16:22:35.148Z,11.40
2018-12-31T16:25:05.658Z,11.40
2018-12-31T16:27:46.102Z,11.50
2018-12-31T16:30:26.989Z,11.50
2018-12-31T16:33:07.225Z,11.50
2018-12-31T16:35:48.096Z,11.50
2018-12-31T16:38:29.178Z,11.60
2018-12-31T16:41:09.808Z,11.50
2018-12-31T16:43:50.588Z,11.50
2018-12-31T16:46:31.625Z,11.50
2018-12-31T16:49:15.266Z,11.50
2018-12-31T16:52:02.872Z,11.50
2018-12-31T16:57:20.334Z,11.50
2018-12-31T17:00:06.331Z,11.50
2018-12-31T17:02:47.583Z,11.60
2018-12-31T17:08:13.862Z,11.60
2018-12-31T17:10:55.396Z,11.40
2018-12-31T17:14:06.800Z,11.40
2018-12-31T17:16:31.691Z,11.30
2018-12-31T17:19:12.269Z,11.20
2018-12-31T17:21:54.819Z,11.20
2018-12-31T17:24:35.570Z,11.10
2018-12-31T17:27:15.940Z,11.10
2018-12-31T17:29:57.018Z,11.00
2018-12-31T17:32:37.662Z,11.10
2018-12-31T17:35:18.582Z,11.00
2018-12-31T17:37:59.315Z,11.00
2018-12-31T17:40:40.172Z,11.00
2018-12-31T17:43:21.578Z,10.90
2018-12-31T17:46:23.576Z,10.90
2018-12-31T17:48:54.510Z,10.90
2018-12-31T17:51:46.105Z,11.00
2018-12-31T17:54:26.797Z,10.90
2018-12-31T17:57:07.461Z,10.90
2018-12-31T18:00:11.455Z,10.90
2018-12-31T18:02:56.473Z,10.80
2018-12-31T18:05:27.441Z,10.70
2018-12-31T18:08:08.193Z,10.80
2018-12-31T18:13:33.830Z,10.60
2018-12-31T18:16:19.072Z,10.50
2018-12-31T18:24:40.347Z,10.10
2018-12-31T18:27:21.602Z,10.10
2018-12-31T18:33:17.109Z,10.30
2018-12-31T18:35:59.723Z,10.40
2018-12-31T18:41:25.484Z,10.40
2018-12-31T18:44:06.811Z,10.50
2018-12-31T18:46:47.035Z,10.50
2018-12-31T18:49:27.603Z,10.60
2018-12-31T18:52:30.778Z,10.60
2018-12-31T18:55:00.948Z,10.60
2018-12-31T18:58:08.736Z,10.60
2018-12-31T19:06:05.814Z,10.40
2018-12-31T19:08:50.192Z,10.30
2018-12-31T19:14:11.792Z,10.30
2018-12-31T19:16:52.819Z,10.20
2018-12-31T19:19:40.140Z,10.10
2018-12-31T19:27:52.215Z,10.40
2018-12-31T19:30:38.483Z,10.30
2018-12-31T19:36:05.302Z,10.20
2018-12-31T19:41:36.014Z,10.20
2018-12-31T19:44:22.103Z,10.20
2018-12-31T19:47:06.785Z,10.30
2018-12-31T19:49:52.876Z,10.30
2018-12-31T19:52:33.619Z,10.30
2018-12-31T19:58:03.974Z,10.30
2018-12-31T20:00:51.495Z,10.30
2018-12-31T20:03:38.412Z,10.20
2018-12-31T20:06:19.014Z,10.10
2018-12-31T20:08:59.478Z,10.10
2018-12-31T20:14:44.613Z,10.10
2018-12-31T20:20:34.453Z,10.00
2018-12-31T20:23:40.853Z,9.80
2018-12-31T20:26:23.951Z,9.80
2018-12-31T20:28:59.051Z,9.80
2018-12-31T20:31:43.941Z,9.70
2018-12-31T20:34:24.849Z,9.70
2018-12-31T20:37:34.496Z,9.70
2018-12-31T20:42:41.314Z,9.80
2018-12-31T20:48:02.167Z,10.00
2018-12-31T20:50:42.627Z,9.90
2018-12-31T20:54:05.484Z,10.00
2018-12-31T20:56:20.321Z,10.10
2018-12-31T21:02:13.627Z,10.10
2018-12-31T21:04:43.543Z,10.20
2018-12-31T21:10:15.014Z,10.20
2018-12-31T21:13:01.015Z,10.20
2018-12-31T21:15:41.651Z,10.30
2018-12-31T21:18:40.628Z,10.30
2018-12-31T21:21:11.601Z,10.30
2018-12-31T21:26:43.490Z,10.20
2018-12-31T21:29:29.213Z,10.20
2018-12-31T21:35:20.132Z,10.20
2018-12-31T21:37:52.996Z,10.20
2018-12-31T21:43:43.883Z,10.30
2018-12-31T21:49:25.088Z,10.10
2018-12-31T21:54:37.663Z,9.90
2018-12-31T22:00:12.774Z,9.90
2018-12-31T22:06:01.810Z,9.80
2018-12-31T22:11:18.390Z,9.70
2018-12-31T22:14:28.561Z,9.80
2018-12-31T22:17:11.276Z,9.90
2018-12-31T22:19:43.926Z,9.90
2018-12-31T22:25:30.571Z,9.70
2018-12-31T22:31:09.529Z,9.50
2018-12-31T22:33:39.547Z,9.50
2018-12-31T22:39:14.397Z,9.40
2018-12-31T22:41:54.953Z,9.30
2018-12-31T22:45:10.163Z,9.40
2018-12-31T22:47:35.751Z,9.30
2018-12-31T22:50:37.746Z,9.30
2018-12-31T22:55:59.290Z,9.30
2018-12-31T22:58:45.819Z,9.20
2018-12-31T23:01:59.503Z,9.20
2018-12-31T23:04:31.074Z,9.20
2018-12-31T23:07:12.373Z,9.30
2018-12-31T23:12:38.842Z,9.20
2018-12-31T23:15:19.727Z,9.20
2018-12-31T23:19:02.181Z,9.20
2018-12-31T23:20:51.707Z,9.20
2018-12-31T23:23:36.721Z,9.20
2018-12-31T23:32:08.664Z,9.20
2018-12-31T23:34:52.455Z,9.20
2018-12-31T23:40:21.549Z,9.10
2018-12-31T23:48:39.858Z,9.00
2018-12-31T23:51:25.365Z,8.90
2018-12-31T23:54:28.751Z,8.80
2018-12-31T23:57:00.140Z,8.80
